Terminal Aerodrome Forecast
Issued by NWS

Home | Current Version | Previous Version | Text Only | Print | Product List | Glossary On
Versions: 1 2 3 4 5 6 7 8 9 10 11 12 13 14 15 16 17 18 19 20 21 22 23 24 25 26 27 28 29 30 31 32 33 34 35 36 37 38 39 40 41 42 43
243
FTAK31 PANC 092100 AAC
TAFAAQ
TAF AMD
PAAQ 092100Z 0921/1018 07004KT 1/4SM FZFG VV002
      TEMPO 0921/0922 3SM BR SCT002
     FM092200 36008KT P6SM SKC
     FM100900 04020G28KT P6SM SKC=

USA.gov is the U.S. government's official web portal to all federal, state and local government web resources and services.